AirNav   Textron
 
 771 users online  

67T Old Hoppe Place Airport
Agua Dulce, Texas, USA

GOING TO AGUA DULCE?


FAA INFORMATION EFFECTIVE 07 DECEMBER 2017

Location

FAA Identifier: 67T
Lat/Long: 27-48-00.8800N / 097-51-03.6750W
27-48.014667N / 097-51.061250W
27.8002444 / -97.8510208
(estimated)
Elevation: 96.3 ft. / 29 m (estimated)
Variation: 06E (2000)
From city: 3 miles E of AGUA DULCE, TX
Time zone: UTC -6 (UTC -5 during Daylight Saving Time)
Zip code: 78330

Airport Operations

Airport use: Open to the public
Activation date: 01/1997
Control tower: no
ARTCC: HOUSTON CENTER
FSS: SAN ANGELO FLIGHT SERVICE STATION
NOTAMs facility: SJT (NOTAM-D service available)
Attendance: MON-FRI 0800-1630
Wind indicator: lighted
Segmented circle: no
Lights: FOR LIRL RY 16/34, REIL AND VASI RYS 16 & 34 PRIOR ARRANGEMENTS REQUIRED. CALL 361-998-2516.
Beacon: white-green (lighted land airport)
BEACON DUSK-0100.
Landing fee: yes

Airport Communications

CTAF: 122.9
WX AWOS-3 at RBO (9 nm E): 118.175 (361-767-1982)
WX ASOS at ALI (10 nm W): 119.225 (361-668-0069)
WX AWOS-3P at IKG (18 nm SW): 119.075 (361-592-9152)
WX ASOS at CRP (19 nm E): PHONE 361-289-0191

Nearby radio navigation aids

VOR radial/distance  VOR name  Freq  Var
ALIr062/(9.7)ALICE VOR114.5006E
CRPr245/22.4CORPUS CHRISTI VORTAC115.5009E
NGPr277/30.3TRUAX VORTAC114.0006E

Airport Services

Parking: hangars and tiedowns

Runway Information

Runway 16/34

Dimensions: 2764 x 30 ft. / 842 x 9 m
Surface: concrete, in good condition
RYS 16 AND 34 HAVE 40 FT BLAST PADS 30 FT WIDE.
Runway edge lights: low intensity
RY LGTS SURROUNDED BY 18 INCH HIGH STAKES AND RAZOR WIRE.
Runway edge markings: NRS 30 FT LONG.
RUNWAY 16  RUNWAY 34
Latitude: 27-48.238167N27-47.791167N
Longitude: 097-51.112500W097-51.010000W
Elevation: 94.7 ft.96.3 ft.
Traffic pattern: leftleft
Markings: basic, in good conditionbasic, in good condition
Visual slope indicator: 2-box VASI on left (3.00 degrees glide path)
VASI SURROUNDED BY 2 FT HIGH RAZOR WIRE.
2-box VASI on left (3.75 degrees glide path)
VASI SURROUNDED BY 2 FT HIGH RAZOR WIRE.
Runway end identifier lights: yes
REIL ARE NON-FRANGIBLE AND ARE SURROUNDED WITH 18 INCH RAZOR WIRE.
yes
REIL ARE NON-FRANGIBLE AND ARE SURROUNDED WITH 18 INCH HIGH RAZOR WIRE.
Touchdown point: yes, no lightsyes, no lights
Obstructions: none
+15 FT DIRT ROAD 143 FT FM RY CNTRLN 0 FT R/L.
15 ft. tree, 345 ft. from runway, 161 ft. left of centerline, 9:1 slope to clear
+8 FT FENCE 0-10 FT FM RY THLD 90-125 FT R.

Airport Ownership and Management from official FAA records

Ownership: Privately-owned
Owner: DOUG & BECKY WILLIAMS
3673 CR 93
AGUA DULCE, TX 78330
Phone 361-998-2516
Manager: DOUG WILLIAMS
3673 CR 93
AGUA DULCE, TX 78330
Phone 361-998-2516

Airport Operational Statistics

Aircraft based on the field: 13
Single engine airplanes: 7
Multi engine airplanes: 2
Jet airplanes: 3
Helicopters: 1
    
Aircraft operations: avg 83/month *
100% local general aviation
* for 12-month period ending 13 April 2017

Additional Remarks

WILDLIFE ON AND IN VICINITY OF THE AIRPORT.

Instrument Procedures

There are no published instrument procedures at 67T.

Some nearby airports with instrument procedures:

KRBO - Nueces County Airport (9 nm E)
KALI - Alice International Airport (10 nm W)
KNOG - Orange Grove Naval Auxiliary Field (12 nm NW)
KIKG - Kleberg County Airport (18 nm SW)
KNQI - Kingsville Naval Air Station (18 nm S)
KCRP - Corpus Christi International Airport (19 nm E)
 
Loc | Ops | Rwys | IFR | FBO | Links
Com | Nav | Svcs | Stats | Notes


 
Area around 67T (Old Hoppe Place Airport)
 
Road maps at: MapQuest Bing Google
 
Aerial photo
No photo
 
Sectional chart

 
Airport distance calculator
Flying to Old Hoppe Place Airport? Find the distance to fly.

From to 67T

Sunrise and sunset
Times for 10-Dec-2017
 Local
(UTC-6)
 Zulu
(UTC)
Morning civil twilight06:4712:47
Sunrise07:1313:13
Sunset17:3623:36
Evening civil twilight18:0200:02

Current date and time
Zulu (UTC)  11-Dec-2017 04:19:13
Local (UTC-6)  10-Dec-2017 22:19:13
 
METAR
KRBO 
9nm E 
110355Z AUTO 00000KT 10SM CLR 10/06 A3041 RMK AO2 T00970057
KALI 
10nm SW 
110353Z AUTO 26004KT 10SM CLR 08/03 A3040 RMK AO2 SLP293 T00780033 PNO $
KNOG 
12nm NW 
110356Z AUTO 26007KT 10SM CLR 10/03 A3040 RMK AO2 SLP276 T01000033 PWINO PNO $
KIKG 
18nm SW 
110355Z AUTO 00000KT 10SM CLR 06/05 A3042 RMK AO2 T00560052
KNQI 
18nm S 
110356Z AUTO 21003KT 10SM CLR 08/07 A3040 RMK AO2 SLP291 T00780067 $
KCRP 
19nm E 
110351Z 19003KT 10SM FEW250 09/06 A3040 RMK AO2 SLP293 T00890061 $
TAF
KALI 
10nm SW 
101726Z 1018/1118 35005KT P6SM FEW250 FM110000 VRB03KT P6SM SCT250 FM111400 25005KT P6SM BKN250
KNQI 
18nm S 
1023/1123 VRB05KT 9999 SCT200 QNH3028INS AUTOMATED SENSOR METWATCH 1023 TIL 1111 T04/1112Z T21/1121Z FN00191
KCRP 
19nm E 
101726Z 1018/1118 02008KT P6SM SKC FM102300 VRB03KT P6SM SCT250 FM111400 25005KT P6SM BKN250
NOTAMs
Click for the latest NOTAMs
NOTAMs are issued by the DoD/FAA and will open in a separate window not controlled by AirNav.

 

 
 

Would you like to see your business listed on this page?

 If your business provides an interesting product or service to pilots, flight crews, aircraft, or users of the Old Hoppe Place Airport, you should consider listing it here.  To start the listing process, click on the button below
 
Add a business
 

Other Pages about Old Hoppe Place Airport

Update a link
 
Copyright © AirNav, LLC. All rights reserved. Privacy Policy  Contact